createdAt,value
2018-05-15T04:09:36.486Z,68.68
2018-05-15T04:10:01.989Z,68.68
2018-05-15T04:10:27.424Z,68.58
2018-05-15T04:10:52.913Z,68.49
2018-05-15T04:11:18.285Z,68.39
2018-05-15T04:11:43.813Z,68.58
2018-05-15T04:12:09.274Z,68.68
2018-05-15T04:12:34.745Z,68.87
2018-05-15T04:13:00.239Z,68.58
2018-05-15T04:13:25.705Z,68.58
2018-05-15T04:13:51.175Z,68.58
2018-05-15T04:14:16.605Z,68.68
2018-05-15T04:14:42.040Z,68.58
2018-05-15T04:15:07.576Z,68.77
2018-05-15T04:15:33.039Z,68.87
2018-05-15T04:15:58.550Z,68.68
2018-05-15T04:16:23.984Z,69.15
2018-05-15T04:16:49.404Z,69.15
2018-05-15T04:17:14.913Z,68.96
2018-05-15T04:17:40.337Z,68.96
2018-05-15T04:18:05.808Z,69.15
2018-05-15T04:18:31.238Z,69.06
2018-05-15T04:18:56.719Z,69.06
2018-05-15T04:19:22.173Z,68.87
2018-05-15T04:19:47.666Z,68.96
2018-05-15T04:20:13.204Z,69.06
2018-05-15T04:20:38.674Z,68.96
2018-05-15T04:21:04.117Z,69.06
2018-05-15T04:21:29.547Z,69.15
2018-05-15T04:21:55.054Z,68.87
2018-05-15T04:22:20.484Z,68.77
2018-05-15T04:22:45.975Z,68.96
2018-05-15T04:23:11.461Z,69.35
2018-05-15T04:23:36.975Z,69.35
2018-05-15T04:24:02.477Z,69.25
2018-05-15T04:24:27.930Z,68.96
2018-05-15T04:24:53.407Z,69.06
2018-05-15T04:25:18.886Z,69.06
2018-05-15T04:25:44.298Z,69.44
2018-05-15T04:26:09.743Z,69.54
2018-05-15T04:26:35.180Z,69.54
2018-05-15T04:27:00.674Z,69.54
2018-05-15T04:27:26.160Z,69.35
2018-05-15T04:27:51.700Z,69.54
2018-05-15T04:28:17.333Z,69.44
2018-05-15T04:28:43.433Z,69.15
2018-05-15T04:29:08.885Z,69.73
2018-05-15T04:29:34.432Z,69.92
2018-05-15T04:29:59.956Z,69.92
2018-05-15T04:30:25.414Z,69.92
2018-05-15T04:30:50.860Z,70.11
2018-05-15T04:31:16.301Z,69.73
2018-05-15T04:31:41.736Z,70.01
2018-05-15T04:32:07.343Z,69.64
2018-05-15T04:32:32.775Z,70.01
2018-05-15T04:32:58.230Z,70.01
2018-05-15T04:33:23.723Z,70.11
2018-05-15T04:33:49.204Z,70.21
2018-05-15T04:34:14.691Z,70.01
2018-05-15T04:34:40.102Z,69.73
2018-05-15T04:35:05.729Z,70.01
2018-05-15T04:35:31.025Z,69.82
2018-05-15T04:35:56.509Z,69.82
2018-05-15T04:36:21.933Z,69.92
2018-05-15T04:36:47.418Z,69.64
2018-05-15T04:37:12.900Z,69.64
2018-05-15T04:37:38.380Z,69.38
2018-05-15T04:38:03.798Z,69.57
2018-05-15T04:38:29.289Z,69.38
2018-05-15T04:38:54.755Z,68.9
2018-05-15T04:39:20.215Z,68.62
2018-05-15T04:39:45.697Z,68.8
2018-05-15T04:40:11.157Z,68.42
2018-05-15T04:40:36.659Z,67.85
2018-05-15T04:41:02.191Z,68.36
2018-05-15T04:41:27.661Z,68.17
2018-05-15T04:41:53.095Z,68.07
2018-05-15T04:42:18.564Z,67.5
2018-05-15T04:42:44.234Z,67.31
2018-05-15T04:43:09.675Z,67.69
2018-05-15T04:43:35.435Z,67.69
2018-05-15T04:44:00.955Z,67.31
2018-05-15T04:44:26.423Z,67.63
2018-05-15T04:44:52.097Z,67.15
2018-05-15T04:45:17.815Z,66.77
2018-05-15T04:45:43.547Z,66.67
2018-05-15T04:46:09.053Z,66.38
2018-05-15T04:46:35.144Z,66.67
2018-05-15T04:47:00.948Z,66.38
2018-05-15T04:47:26.650Z,66.48
2018-05-15T04:47:52.387Z,66.58
2018-05-15T04:48:18.073Z,65.84
2018-05-15T04:48:43.671Z,65.75
2018-05-15T04:49:09.420Z,65.65
2018-05-15T04:49:35.125Z,65.84
2018-05-15T04:50:00.684Z,65.26
2018-05-15T04:50:26.231Z,64.89
2018-05-15T04:50:52.081Z,64.79
2018-05-15T04:51:17.703Z,64.89
2018-05-15T04:51:43.360Z,64.59
2018-05-15T04:52:09.260Z,64.31
2018-05-15T04:52:34.947Z,64.31
2018-05-15T04:53:00.555Z,63.92
2018-05-15T04:53:26.486Z,63.76
2018-05-15T04:53:52.305Z,63.96
2018-05-15T04:54:18.117Z,63.86
2018-05-15T04:54:43.564Z,63.86
2018-05-15T04:55:09.647Z,63.86
2018-05-15T04:55:35.535Z,64.05
2018-05-15T04:56:02.237Z,63.57
2018-05-15T04:56:27.677Z,63.38
2018-05-15T04:56:53.151Z,63.38
2018-05-15T04:57:18.588Z,63.48
2018-05-15T04:57:44.137Z,63.09
2018-05-15T04:58:09.611Z,63
2018-05-15T04:58:35.108Z,63.19
2018-05-15T04:59:00.565Z,62.9
2018-05-15T04:59:26.042Z,63.29
2018-05-15T04:59:51.537Z,63.29
2018-05-15T05:00:16.993Z,63
2018-05-15T05:00:42.468Z,63.38
2018-05-15T05:01:07.976Z,63.38
2018-05-15T05:01:33.523Z,63.22
2018-05-15T05:01:58.975Z,62.71
2018-05-15T05:02:24.464Z,62.16
2018-05-15T05:02:49.927Z,62.16
2018-05-15T05:03:15.434Z,62.07
2018-05-15T05:03:40.985Z,61.78
2018-05-15T05:04:06.449Z,61.49
2018-05-15T05:04:31.932Z,61.78
2018-05-15T05:04:57.358Z,61.69
2018-05-15T05:05:22.853Z,61.69
2018-05-15T05:05:48.278Z,61.98
2018-05-15T05:06:13.717Z,62.26
2018-05-15T05:06:39.232Z,62.16
2018-05-15T05:07:04.820Z,62.45
2018-05-15T05:07:30.307Z,62.74
2018-05-15T05:07:56.009Z,62.07
2018-05-15T05:08:21.677Z,62.07
2018-05-15T05:08:47.465Z,61.11
2018-05-15T05:09:12.792Z,61.11
2018-05-15T05:09:38.375Z,61.3
2018-05-15T05:10:04.061Z,61.21
2018-05-15T05:10:29.811Z,61.3
2018-05-15T05:10:55.639Z,61.3
2018-05-15T05:11:21.202Z,61.3
2018-05-15T05:11:46.791Z,61.21
2018-05-15T05:12:12.293Z,61.02
2018-05-15T05:12:37.975Z,61.21
2018-05-15T05:13:03.641Z,61.69
2018-05-15T05:13:29.454Z,61.88
2018-05-15T05:13:55.337Z,61.69
2018-05-15T05:14:20.890Z,61.02
2018-05-15T05:14:46.491Z,60.72
2018-05-15T05:15:12.203Z,60.72
2018-05-15T05:15:37.770Z,61.02
2018-05-15T05:16:03.559Z,61.11
2018-05-15T05:16:29.284Z,60.92
2018-05-15T05:16:55.173Z,60.44
2018-05-15T05:17:20.770Z,60.15
2018-05-15T05:17:46.453Z,60.53
2018-05-15T05:18:12.335Z,59.96
2018-05-15T05:18:38.076Z,60.25
2018-05-15T05:19:03.791Z,60.25
2018-05-15T05:19:29.766Z,60.63
2018-05-15T05:19:55.254Z,60.25
2018-05-15T05:20:20.820Z,60.05
2018-05-15T05:20:46.539Z,60.44
2018-05-15T05:21:12.119Z,60.53
2018-05-15T05:21:37.536Z,59.58
2018-05-15T05:22:03.008Z,59.19
2018-05-15T05:22:28.489Z,59.86
2018-05-15T05:22:54.229Z,59.67
2018-05-15T05:23:20.367Z,60.44
2018-05-15T05:23:46.064Z,60.44
2018-05-15T05:24:11.597Z,59.96
2018-05-15T05:24:37.198Z,60.35
2018-05-15T05:25:03.125Z,60.15
2018-05-15T05:25:28.721Z,60.47
2018-05-15T05:25:54.416Z,60.47
2018-05-15T05:26:20.207Z,60.18
2018-05-15T05:26:45.875Z,60.08
2018-05-15T05:27:11.431Z,59.51
2018-05-15T05:27:37.099Z,58.64
2018-05-15T05:28:02.636Z,59.12
2018-05-15T05:28:28.578Z,59.03
2018-05-15T05:28:54.099Z,59.03
2018-05-15T05:29:19.669Z,58.45
2018-05-15T05:29:45.420Z,58.74
2018-05-15T05:30:11.132Z,58.74
2018-05-15T05:30:36.997Z,57.68
2018-05-15T05:31:02.685Z,57.68
2018-05-15T05:31:28.108Z,58.74
2018-05-15T05:31:53.710Z,57.4
2018-05-15T05:32:19.284Z,58.07
2018-05-15T05:32:45.051Z,58.39
2018-05-15T05:33:10.577Z,58.36
2018-05-15T05:33:36.324Z,58
2018-05-15T05:34:02.063Z,57.71
2018-05-15T05:34:27.641Z,57.43
2018-05-15T05:34:53.305Z,58.17
2018-05-15T05:35:19.431Z,57.33
2018-05-15T05:35:44.915Z,56.95
2018-05-15T05:36:10.469Z,56.46
2018-05-15T05:36:36.041Z,56.85
2018-05-15T05:37:01.484Z,56.85
2018-05-15T05:37:27.049Z,56.95
2018-05-15T05:37:52.485Z,57.04
2018-05-15T05:38:17.959Z,57.43
2018-05-15T05:38:43.439Z,57.33
2018-05-15T05:39:09.006Z,57.04
2018-05-15T05:39:34.458Z,57.43
2018-05-15T05:39:59.988Z,57.62
2018-05-15T05:40:25.455Z,57.52
2018-05-15T05:40:51.059Z,57.04
2018-05-15T05:41:16.732Z,56.37
2018-05-15T05:41:42.554Z,56.37
2018-05-15T05:42:08.063Z,56.56
2018-05-15T05:42:33.711Z,56.27
2018-05-15T05:42:59.425Z,55.6
2018-05-15T05:43:24.949Z,55.6
2018-05-15T05:43:50.693Z,56.08
2018-05-15T05:44:16.608Z,55.69
2018-05-15T05:44:41.983Z,55.69
2018-05-15T05:45:07.504Z,55.79
2018-05-15T05:45:33.177Z,55.89
2018-05-15T05:45:58.862Z,56.18
2018-05-15T05:46:24.533Z,55.69
2018-05-15T05:46:49.928Z,55.79
2018-05-15T05:47:15.687Z,55.89
2018-05-15T05:47:41.291Z,55.69
2018-05-15T05:48:06.720Z,55.79
2018-05-15T05:48:32.184Z,55.99
2018-05-15T05:48:57.697Z,55.89
2018-05-15T05:49:23.131Z,55.79
2018-05-15T05:49:48.624Z,56.18
2018-05-15T05:50:14.064Z,55.89
2018-05-15T05:50:39.507Z,55.51
2018-05-15T05:51:04.980Z,55.79
2018-05-15T05:51:30.485Z,55.79
2018-05-15T05:51:56.001Z,56.27
2018-05-15T05:52:21.389Z,55.99
2018-05-15T05:52:46.887Z,56.66
2018-05-15T05:53:12.355Z,57.45
2018-05-15T05:53:37.833Z,57.17
2018-05-15T05:54:03.397Z,57.26
2018-05-15T05:54:28.868Z,56.98
2018-05-15T05:54:54.318Z,57.26
2018-05-15T05:55:19.819Z,56.49
2018-05-15T05:55:45.229Z,57.17
2018-05-15T05:56:10.708Z,56.78
2018-05-15T05:56:36.265Z,56.78
2018-05-15T05:57:01.723Z,56.98
2018-05-15T05:57:27.208Z,56.52
2018-05-15T05:57:52.660Z,55.85
2018-05-15T05:58:18.141Z,56.33
2018-05-15T05:58:43.589Z,55.08
2018-05-15T05:59:09.098Z,54.99
2018-05-15T05:59:34.565Z,55.27
2018-05-15T06:00:00.060Z,55.24
2018-05-15T06:00:25.514Z,55.85
2018-05-15T06:00:50.992Z,56.04
2018-05-15T06:01:16.539Z,55.85
2018-05-15T06:01:42.169Z,55.76
2018-05-15T06:02:07.601Z,54.99
2018-05-15T06:02:33.129Z,54.99
2018-05-15T06:02:58.560Z,54.89
2018-05-15T06:03:24.059Z,54.02
2018-05-15T06:03:49.533Z,54.69
2018-05-15T06:04:15.051Z,54.69
2018-05-15T06:04:40.515Z,54.6
2018-05-15T06:05:06.046Z,54.79
2018-05-15T06:05:31.460Z,54.69
2018-05-15T06:05:56.950Z,54.5
2018-05-15T06:06:22.491Z,53.83
2018-05-15T06:06:47.890Z,53.92
2018-05-15T06:07:13.339Z,54.02
2018-05-15T06:07:38.849Z,54.31
2018-05-15T06:08:04.295Z,54.12
2018-05-15T06:08:29.826Z,54.41
2018-05-15T06:08:55.273Z,54.22
2018-05-15T06:09:20.743Z,53.74
2018-05-15T06:09:46.258Z,53.74
2018-05-15T06:10:11.684Z,53.92
2018-05-15T06:10:37.179Z,54.22
2018-05-15T06:11:02.629Z,54.22
2018-05-15T06:11:28.107Z,54.41
2018-05-15T06:11:53.582Z,54.41
2018-05-15T06:12:18.994Z,54.41
2018-05-15T06:12:44.467Z,54.24
2018-05-15T06:13:09.968Z,53.92
2018-05-15T06:13:35.435Z,53.96
2018-05-15T06:14:00.932Z,54.34
2018-05-15T06:14:26.485Z,53.86
2018-05-15T06:14:51.876Z,53.86
2018-05-15T06:15:17.309Z,54.43
2018-05-15T06:15:42.777Z,53.96
2018-05-15T06:16:08.188Z,54.24
2018-05-15T06:16:33.726Z,54.14
2018-05-15T06:16:59.129Z,54.43
2018-05-15T06:17:24.608Z,54.14
2018-05-15T06:17:50.054Z,54.34
2018-05-15T06:18:15.612Z,53.98
2018-05-15T06:18:41.051Z,53.57
2018-05-15T06:19:06.492Z,53.88
2018-05-15T06:19:31.929Z,53.28
2018-05-15T06:19:57.456Z,53.69
2018-05-15T06:20:22.863Z,53.69
2018-05-15T06:20:48.454Z,53.69
2018-05-15T06:21:13.899Z,53.88
2018-05-15T06:21:39.331Z,53.11
2018-05-15T06:22:04.810Z,53.5
2018-05-15T06:22:30.323Z,53.69
2018-05-15T06:22:55.754Z,53.78
2018-05-15T06:23:21.182Z,52.92
2018-05-15T06:23:46.681Z,52.92
2018-05-15T06:24:12.101Z,52.54
2018-05-15T06:24:37.608Z,52.92
2018-05-15T06:25:03.093Z,52.73
2018-05-15T06:25:28.700Z,52.92
2018-05-15T06:25:54.204Z,52.63
2018-05-15T06:26:19.647Z,52.25
2018-05-15T06:26:45.109Z,52.83
2018-05-15T06:27:10.707Z,52.73
2018-05-15T06:27:36.251Z,52.92
2018-05-15T06:28:01.786Z,52.92
2018-05-15T06:28:27.213Z,53.69
2018-05-15T06:28:52.701Z,53.02
2018-05-15T06:29:18.159Z,52.25
2018-05-15T06:29:43.603Z,52.25
2018-05-15T06:30:09.085Z,51.96
2018-05-15T06:30:34.597Z,52.54
2018-05-15T06:31:00.055Z,52.15
2018-05-15T06:31:25.511Z,52.06
2018-05-15T06:31:50.972Z,51.96
2018-05-15T06:32:16.672Z,51.96
2018-05-15T06:32:42.151Z,52.06
2018-05-15T06:33:07.761Z,52.54
2018-05-15T06:33:33.183Z,51.48
2018-05-15T06:33:58.786Z,51.38
2018-05-15T06:34:24.505Z,50.71
2018-05-15T06:34:50.305Z,50.71
2018-05-15T06:35:15.669Z,51.19
2018-05-15T06:35:41.219Z,51.09
2018-05-15T06:36:06.672Z,51.19
2018-05-15T06:36:32.511Z,51.38
2018-05-15T06:36:57.762Z,52.06
2018-05-15T06:37:23.581Z,51.76
2018-05-15T06:37:49.208Z,51.96
2018-05-15T06:38:14.740Z,51.86
2018-05-15T06:38:40.351Z,51.38
2018-05-15T06:39:06.117Z,51.38
2018-05-15T06:39:31.949Z,51.09
2018-05-15T06:39:57.479Z,51.29
2018-05-15T06:40:22.933Z,50.99
2018-05-15T06:40:48.693Z,51.67
2018-05-15T06:41:14.278Z,51.38
2018-05-15T06:41:39.733Z,51.09
2018-05-15T06:42:05.348Z,52.25
2018-05-15T06:42:31.076Z,51.38
2018-05-15T06:42:56.630Z,51.09
2018-05-15T06:43:22.195Z,51.48
2018-05-15T06:43:47.761Z,51.29
2018-05-15T06:44:13.377Z,51.19
2018-05-15T06:44:38.804Z,51.38
2018-05-15T06:45:04.779Z,51.96
2018-05-15T06:45:30.027Z,51.12
2018-05-15T06:45:55.627Z,51.21
2018-05-15T06:46:21.400Z,51.48
2018-05-15T06:46:47.089Z,51.67
2018-05-15T06:47:12.781Z,51.5
2018-05-15T06:47:38.234Z,51.89
2018-05-15T06:48:04.258Z,51.21
2018-05-15T06:48:29.610Z,50.93
2018-05-15T06:48:55.604Z,51.02
2018-05-15T06:49:21.813Z,50.83
2018-05-15T06:49:47.262Z,50.93
2018-05-15T06:50:12.684Z,50.93
2018-05-15T06:50:38.524Z,51.31
2018-05-15T06:51:04.406Z,51.02
2018-05-15T06:51:30.766Z,51.02
2018-05-15T06:51:56.128Z,51.5
2018-05-15T06:52:21.666Z,51.12
2018-05-15T06:52:47.133Z,50.63
2018-05-15T06:53:13.021Z,51.02
2018-05-15T06:53:38.732Z,51.31
2018-05-15T06:54:04.293Z,50.93
2018-05-15T06:54:30.061Z,51.12
2018-05-15T06:54:55.636Z,51.21
2018-05-15T06:55:21.213Z,50.93
2018-05-15T06:55:46.953Z,50.93
2018-05-15T06:56:12.806Z,50.63
2018-05-15T06:56:38.689Z,51.21
2018-05-15T06:57:04.052Z,51.41
2018-05-15T06:57:29.630Z,51.21
2018-05-15T06:57:55.326Z,51.41
2018-05-15T06:58:20.729Z,51.31
2018-05-15T06:58:46.292Z,50.93
2018-05-15T06:59:12.192Z,51.02
2018-05-15T06:59:37.841Z,52.27
2018-05-15T07:00:03.545Z,51.6
2018-05-15T07:00:29.309Z,51.53
2018-05-15T07:00:55.321Z,52.27
2018-05-15T07:01:21.271Z,52.2
2018-05-15T07:01:47.234Z,51.92
2018-05-15T07:02:14.041Z,51.62
2018-05-15T07:02:39.777Z,50.95
2018-05-15T07:03:06.005Z,51.24
2018-05-15T07:03:32.148Z,51.24
2018-05-15T07:03:58.567Z,51.05
2018-05-15T07:04:24.524Z,51.62
2018-05-15T07:04:50.391Z,51.92
2018-05-15T07:05:17.189Z,52.01
2018-05-15T07:05:42.813Z,52.11
2018-05-15T07:06:25.616Z,51.14
2018-05-15T07:06:52.168Z,51.14
2018-05-15T07:07:34.590Z,50.95
2018-05-15T07:08:06.080Z,50.66
2018-05-15T07:08:34.654Z,51.05
2018-05-15T07:08:59.353Z,51.05
2018-05-15T07:09:24.965Z,51.07
2018-05-15T07:09:50.662Z,51.17
2018-05-15T07:10:16.228Z,50.78
2018-05-15T07:10:46.064Z,50.69
2018-05-15T07:11:25.351Z,50.69
2018-05-15T07:11:50.603Z,50.11
2018-05-15T07:12:17.307Z,50.11
2018-05-15T07:12:42.868Z,50.88
2018-05-15T07:13:09.903Z,50.78
2018-05-15T07:13:36.336Z,50.11
2018-05-15T07:14:01.886Z,49.53
2018-05-15T07:14:27.363Z,49.43
2018-05-15T07:14:52.897Z,48.86
2018-05-15T07:15:18.735Z,48.44
2018-05-15T07:15:44.235Z,49.6
2018-05-15T07:16:10.322Z,49.6
2018-05-15T07:16:35.709Z,49.99
2018-05-15T07:17:01.084Z,49.6
2018-05-15T07:17:26.607Z,50.09
2018-05-15T07:17:52.182Z,51.07
2018-05-15T07:18:17.909Z,51.07
2018-05-15T07:18:43.399Z,50.88
2018-05-15T07:19:08.792Z,50.59
2018-05-15T07:19:34.310Z,50.3
2018-05-15T07:20:00.100Z,50.11
2018-05-15T07:20:25.739Z,50.21
2018-05-15T07:20:51.255Z,50.21
2018-05-15T07:21:16.942Z,50.3
2018-05-15T07:21:42.382Z,49.91
2018-05-15T07:22:07.844Z,50.01
2018-05-15T07:22:33.405Z,49.46
2018-05-15T07:22:58.864Z,49.17
2018-05-15T07:23:24.577Z,49.46
2018-05-15T07:23:49.929Z,49.46
2018-05-15T07:24:17.139Z,50.11
2018-05-15T07:24:42.697Z,50.04
2018-05-15T07:25:08.192Z,49.37
2018-05-15T07:25:33.743Z,49.94
2018-05-15T07:25:59.323Z,50.04
2018-05-15T07:26:25.052Z,49.94
2018-05-15T07:26:50.854Z,49.55
2018-05-15T07:27:17.324Z,49.46
2018-05-15T07:27:42.939Z,49.46
2018-05-15T07:28:08.838Z,49.17
2018-05-15T07:28:34.195Z,49.46
2018-05-15T07:28:59.808Z,49.27
2018-05-15T07:29:25.485Z,49.55
2018-05-15T07:29:51.097Z,49.17
2018-05-15T07:30:16.584Z,49.27
2018-05-15T07:30:42.237Z,48.4
2018-05-15T07:31:07.819Z,48.79
2018-05-15T07:31:33.423Z,48.97
2018-05-15T07:31:58.910Z,48.88
2018-05-15T07:32:24.521Z,48.59
2018-05-15T07:32:49.971Z,48.88
2018-05-15T07:33:15.491Z,48.3
2018-05-15T07:33:41.301Z,48.49
2018-05-15T07:34:06.672Z,48.4
2018-05-15T07:34:32.165Z,48.49
2018-05-15T07:34:57.882Z,48.21
2018-05-15T07:35:23.426Z,48.52
2018-05-15T07:35:48.820Z,49.37
2018-05-15T07:36:14.421Z,49.27
2018-05-15T07:36:40.040Z,49.48
2018-05-15T07:37:05.984Z,49.39
2018-05-15T07:37:31.330Z,48.03
2018-05-15T07:37:57.103Z,47.75
2018-05-15T07:38:22.624Z,47.36
2018-05-15T07:38:48.054Z,47.85
2018-05-15T07:39:13.721Z,47.65
2018-05-15T07:39:39.322Z,47.36
2018-05-15T07:40:04.921Z,46.97
2018-05-15T07:40:30.213Z,47.36
2018-05-15T07:40:55.761Z,46.88
2018-05-15T07:41:21.476Z,46.97
2018-05-15T07:41:47.246Z,47.55
2018-05-15T07:42:12.953Z,47.17
2018-05-15T07:42:38.458Z,48.42
2018-05-15T07:43:03.973Z,48.03
2018-05-15T07:43:29.510Z,47.65
2018-05-15T07:43:55.032Z,48.23
2018-05-15T07:44:20.662Z,48.03
2018-05-15T07:44:46.201Z,48.23
2018-05-15T07:45:12.609Z,48.13
2018-05-15T07:45:37.478Z,47.45
2018-05-15T07:46:03.792Z,47.55
2018-05-15T07:46:29.390Z,47.07
2018-05-15T07:46:54.962Z,47.48
2018-05-15T07:47:20.416Z,47.09
2018-05-15T07:47:46.005Z,47.27
2018-05-15T07:48:11.637Z,47.87
2018-05-15T07:48:37.222Z,47.19
2018-05-15T07:49:02.632Z,47.67
2018-05-15T07:49:28.515Z,47.38
2018-05-15T07:49:54.111Z,46.42
2018-05-15T07:50:19.680Z,46.42
2018-05-15T07:50:45.286Z,46.51
2018-05-15T07:51:10.782Z,46.51
2018-05-15T07:51:36.484Z,46.33
2018-05-15T07:52:02.009Z,47
2018-05-15T07:52:27.656Z,46.13
2018-05-15T07:52:53.346Z,45.84
2018-05-15T07:53:18.743Z,45.65
2018-05-15T07:53:44.525Z,45.55
2018-05-15T07:54:10.034Z,46.33
2018-05-15T07:54:35.536Z,45.94
2018-05-15T07:55:01.119Z,46.42
2018-05-15T07:55:26.934Z,46.9
2018-05-15T07:55:52.358Z,47
2018-05-15T07:56:18.020Z,47
2018-05-15T07:56:43.425Z,46.51
2018-05-15T07:57:09.098Z,46.33
2018-05-15T07:57:34.686Z,45.84
2018-05-15T07:58:00.245Z,45.94
2018-05-15T07:58:26.058Z,46.03
2018-05-15T07:58:51.548Z,45.45
2018-05-15T07:59:17.148Z,45.75
2018-05-15T07:59:42.774Z,45.84
2018-05-15T08:00:08.426Z,46.42
2018-05-15T08:00:33.932Z,46.81
2018-05-15T08:00:59.760Z,47.12
2018-05-15T08:01:25.242Z,47.12
2018-05-15T08:01:51.193Z,46.34
2018-05-15T08:02:16.963Z,45.76
2018-05-15T08:02:42.713Z,45.48
2018-05-15T08:03:08.000Z,44.8
2018-05-15T08:03:33.469Z,45.28
2018-05-15T08:03:59.237Z,45.38
2018-05-15T08:04:24.894Z,46.06
2018-05-15T08:04:50.438Z,46.34
2018-05-15T08:05:16.287Z,46.54
2018-05-15T08:05:41.817Z,46.44
2018-05-15T08:06:07.641Z,45.48
2018-05-15T08:06:33.367Z,45
2018-05-15T08:06:58.996Z,45
2018-05-15T08:07:24.747Z,44.42
2018-05-15T08:07:50.224Z,44.8
2018-05-15T08:08:15.941Z,45
2018-05-15T08:08:41.793Z,45.48
2018-05-15T08:09:07.274Z,45.67
2018-05-15T08:09:33.226Z,46.25
2018-05-15T08:09:58.685Z,47.12
2018-05-15T08:10:25.014Z,46.83
2018-05-15T08:10:50.453Z,46.64
2018-05-15T08:11:15.949Z,45.48
2018-05-15T08:11:41.756Z,44.9
2018-05-15T08:12:07.199Z,45.18
2018-05-15T08:12:32.794Z,45
2018-05-15T08:12:58.978Z,45.18
2018-05-15T08:13:24.316Z,44.8
2018-05-15T08:13:50.289Z,45.28
2018-05-15T08:14:16.013Z,44.8
2018-05-15T08:14:41.425Z,45.09
2018-05-15T08:15:08.982Z,45.09
2018-05-15T08:15:33.276Z,45.48
2018-05-15T08:15:59.215Z,45.67
2018-05-15T08:16:24.683Z,45.57
2018-05-15T08:16:50.203Z,45.67
2018-05-15T08:17:15.843Z,45.09
2018-05-15T08:17:41.510Z,45.09
2018-05-15T08:18:07.016Z,45.09
2018-05-15T08:18:32.459Z,45.11
2018-05-15T08:18:58.543Z,45.11
2018-05-15T08:19:24.169Z,44.34
2018-05-15T08:19:49.376Z,43.28
2018-05-15T08:20:15.086Z,43.45
2018-05-15T08:20:40.558Z,43.45
2018-05-15T08:21:06.167Z,43.74
2018-05-15T08:21:31.622Z,44.12
2018-05-15T08:21:57.184Z,44.42
2018-05-15T08:22:22.885Z,45.18
2018-05-15T08:22:48.340Z,44.42
2018-05-15T08:23:13.724Z,43.74
2018-05-15T08:23:39.200Z,43.93
2018-05-15T08:24:04.758Z,45.01
2018-05-15T08:24:30.249Z,44.03
2018-05-15T08:24:56.735Z,43.76
2018-05-15T08:25:22.128Z,43.85
2018-05-15T08:25:47.767Z,44.15
2018-05-15T08:26:13.275Z,45.11
2018-05-15T08:26:38.912Z,45.4
2018-05-15T08:27:04.638Z,45.79
2018-05-15T08:27:31.006Z,45.89
2018-05-15T08:27:56.230Z,45.79
2018-05-15T08:28:21.981Z,45.01
2018-05-15T08:28:47.441Z,44.05
2018-05-15T08:29:13.018Z,43.37
2018-05-15T08:29:38.527Z,43.66
2018-05-15T08:30:04.177Z,43.57
2018-05-15T08:30:29.693Z,42.79
2018-05-15T08:30:55.265Z,42.21
2018-05-15T08:31:20.769Z,42.72
2018-05-15T08:31:46.216Z,43.3
2018-05-15T08:32:11.800Z,43.59
2018-05-15T08:32:37.495Z,43.59
2018-05-15T08:33:02.931Z,43.59
2018-05-15T08:33:28.475Z,43.3
2018-05-15T08:33:54.137Z,43.98
2018-05-15T08:34:19.932Z,44.36
2018-05-15T08:34:45.310Z,43.68
2018-05-15T08:35:10.774Z,43.78
2018-05-15T08:35:36.653Z,43.41
2018-05-15T08:36:02.083Z,42.07
2018-05-15T08:36:27.650Z,40.61
2018-05-15T08:36:53.209Z,40.32
2018-05-15T08:37:19.081Z,39.82
2018-05-15T08:37:44.484Z,40.11
2018-05-15T08:38:09.976Z,40.98
2018-05-15T08:38:35.453Z,41.08
2018-05-15T08:39:01.101Z,41.46
2018-05-15T08:39:26.567Z,41.46
2018-05-15T08:39:52.141Z,42.04
2018-05-15T08:40:17.983Z,41.67
2018-05-15T08:40:43.778Z,41
2018-05-15T08:41:09.571Z,40.23
2018-05-15T08:41:36.279Z,40.03
2018-05-15T08:42:02.413Z,39.36
2018-05-15T08:42:30.190Z,39.74
2018-05-15T08:42:57.636Z,40.01
2018-05-15T08:43:25.136Z,40.4
2018-05-15T08:43:52.147Z,40.01
2018-05-15T08:44:20.712Z,40.23
2018-05-15T08:44:49.805Z,40.13
2018-05-15T08:45:19.246Z,40.03
2018-05-15T08:45:48.198Z,39.43
2018-05-15T08:46:14.637Z,39.72
2018-05-15T08:53:29.196Z,40.59
2018-05-15T08:53:55.214Z,40.59
2018-05-15T08:54:20.694Z,39.92
2018-05-15T08:54:46.239Z,39.43
2018-05-15T08:55:11.889Z,39.82
2018-05-15T08:55:37.571Z,39.24
2018-05-15T08:56:03.136Z,39.14
2018-05-15T08:56:28.766Z,39.34
2018-05-15T08:56:54.309Z,39.62
2018-05-15T08:57:20.035Z,39.34
2018-05-15T08:57:45.527Z,38.76
2018-05-15T08:58:11.103Z,38.76
2018-05-15T08:58:36.601Z,38.85
2018-05-15T08:59:02.178Z,38.56
2018-05-15T08:59:27.610Z,38.56
2018-05-15T08:59:53.140Z,38.37
2018-05-15T09:00:18.674Z,38.46
2018-05-15T09:00:44.283Z,37.88
2018-05-15T09:01:09.821Z,38.18
2018-05-15T09:01:35.893Z,38.56
2018-05-15T09:02:01.586Z,38.56
2018-05-15T09:02:27.380Z,38.18
2018-05-15T09:02:53.178Z,38.56
2018-05-15T09:03:18.896Z,38.28
2018-05-15T09:03:44.710Z,38.28
2018-05-15T09:04:10.247Z,38.76
2018-05-15T09:04:36.198Z,38.76
2018-05-15T09:05:01.826Z,38.66
2018-05-15T09:05:27.439Z,38.85
2018-05-15T09:05:52.791Z,38.66
2018-05-15T09:06:18.331Z,38.28
2018-05-15T09:06:43.762Z,38.37
2018-05-15T09:07:09.498Z,38.85
2018-05-15T09:07:34.993Z,38.66
2018-05-15T09:08:00.464Z,39.04
2018-05-15T09:08:25.909Z,39.14
2018-05-15T09:08:51.374Z,38.28
2018-05-15T09:09:16.871Z,38.28
2018-05-15T09:09:42.357Z,37.6
2018-05-15T09:10:07.789Z,38.08
2018-05-15T09:10:33.268Z,38.46
2018-05-15T09:10:58.821Z,38.85
2018-05-15T09:11:24.408Z,39.24
2018-05-15T09:11:49.781Z,39.24
2018-05-15T09:12:15.368Z,38.56
2018-05-15T09:12:41.073Z,38.08
2018-05-15T09:13:06.550Z,37.4
2018-05-15T09:13:32.021Z,37.7
2018-05-15T09:13:57.573Z,37.7
2018-05-15T09:14:23.056Z,38.18
2018-05-15T09:14:48.559Z,38.66
2018-05-15T09:15:14.327Z,38.56
2018-05-15T09:15:39.754Z,38.28
2018-05-15T09:16:05.300Z,38.2
2018-05-15T09:16:30.947Z,37.42
2018-05-15T09:16:56.394Z,37.12
2018-05-15T09:17:22.000Z,37.13
2018-05-15T09:17:47.453Z,37.23
2018-05-15T09:18:13.136Z,36.63
2018-05-15T09:18:38.693Z,36.15
2018-05-15T09:19:04.045Z,36.34
2018-05-15T09:19:29.547Z,36.34
2018-05-15T09:19:55.063Z,36.44
2018-05-15T09:20:20.513Z,36.44
2018-05-15T09:20:46.095Z,36.82
2018-05-15T09:21:11.938Z,37.12
2018-05-15T09:21:37.639Z,37.4
2018-05-15T09:22:03.086Z,36.92
2018-05-15T09:22:28.722Z,36.05
2018-05-15T09:22:54.201Z,35.28
2018-05-15T09:23:19.812Z,35.57
2018-05-15T09:23:45.243Z,36.24
2018-05-15T09:24:10.762Z,35.47
2018-05-15T09:24:36.156Z,35.18
2018-05-15T09:25:01.887Z,35.08
2018-05-15T09:25:28.052Z,35.08
2018-05-15T09:25:54.166Z,35.16
2018-05-15T09:26:19.749Z,35.36
2018-05-15T09:26:45.320Z,35.74
2018-05-15T09:27:10.841Z,36.32
2018-05-15T09:27:36.327Z,36.8
2018-05-15T09:28:01.830Z,37.02
2018-05-15T09:28:27.357Z,37.6
2018-05-15T09:28:52.889Z,37.21
2018-05-15T09:29:18.502Z,36.34
2018-05-15T09:29:43.962Z,36.44
2018-05-15T09:30:09.680Z,36.24
2018-05-15T09:30:35.218Z,36.44
2018-05-15T09:31:00.701Z,37.12
2018-05-15T09:31:26.273Z,37.04
2018-05-15T09:31:51.610Z,37.32
2018-05-15T09:32:17.083Z,37.04
2018-05-15T09:32:42.677Z,35.58
2018-05-15T09:33:08.411Z,35.78
2018-05-15T09:33:34.187Z,35.78
2018-05-15T09:33:59.890Z,35.39
2018-05-15T09:34:26.075Z,35.68
2018-05-15T09:34:51.716Z,35.39
2018-05-15T09:35:17.155Z,34.62
2018-05-15T09:35:42.995Z,34.81
2018-05-15T09:36:08.722Z,35
2018-05-15T09:36:34.751Z,35.39
2018-05-15T09:37:00.707Z,35.2
2018-05-15T09:37:26.480Z,35.49
2018-05-15T09:37:52.016Z,35.88
2018-05-15T09:38:17.454Z,35.58
2018-05-15T09:38:42.951Z,35.58
2018-05-15T09:39:08.439Z,35.58
2018-05-15T09:39:33.881Z,35.49
2018-05-15T09:39:59.356Z,35.88
2018-05-15T09:40:24.865Z,36.46
2018-05-15T09:40:50.283Z,36.46
2018-05-15T09:41:15.763Z,36.65
2018-05-15T09:41:41.217Z,36.65
2018-05-15T09:42:06.680Z,37.23
2018-05-15T09:42:32.146Z,37.32
2018-05-15T09:42:57.638Z,35.58
2018-05-15T09:43:23.089Z,35.39
2018-05-15T09:43:48.588Z,35.78
2018-05-15T09:44:14.047Z,36.36
2018-05-15T09:44:39.560Z,36.26
2018-05-15T09:45:05.039Z,36.36
2018-05-15T09:45:30.454Z,36.26
2018-05-15T09:45:55.947Z,35.58
2018-05-15T09:46:21.515Z,36.16
2018-05-15T09:46:46.958Z,35.58
2018-05-15T09:47:12.417Z,35.95
2018-05-15T09:47:38.078Z,36.24
2018-05-15T09:48:03.786Z,37.42
2018-05-15T09:48:29.464Z,37.13